Time;durP1;ratioP1;P1;durP2;ratioP2;P2;SDS_P1;SDS_P2;PMS_P1;PMS_P2;Temp;Humidity;BMP_temperature;BMP_pressure;BME280_temperature;BME280_humidity;BME280_pressure;Samples;Min_cycle;Max_cycle;Signal;HPM_P1;HPM_P2
2023/10/03 00:00:54;;;;;;;30.42;18.60;;;;;;;17.03;100.00;100889.50;5006987;28;20454;-70
2023/10/03 00:03:19;;;;;;;32.05;18.58;;;;;;;17.04;100.00;100884.28;5014126;28;20017;-71
2023/10/03 00:05:46;;;;;;;31.55;19.13;;;;;;;17.03;100.00;100877.31;5010936;28;20221;-71
2023/10/03 00:08:13;;;;;;;31.95;19.05;;;;;;;17.04;100.00;100876.44;5015045;28;20606;-70
2023/10/03 00:10:39;;;;;;;34.50;19.50;;;;;;;17.04;100.00;100865.97;5011575;28;20028;-71
2023/10/03 00:13:08;;;;;;;31.00;18.00;;;;;;;17.04;100.00;100865.06;5015933;28;20026;-71
2023/10/03 00:15:34;;;;;;;31.80;18.75;;;;;;;17.04;100.00;100857.22;5010633;28;20169;-70
2023/10/03 00:18:00;;;;;;;33.20;19.52;;;;;;;17.03;100.00;100853.75;5015493;28;20385;-71
2023/10/03 00:20:25;;;;;;;32.15;19.42;;;;;;;17.03;100.00;100847.63;5011669;28;20092;-70
2023/10/03 00:22:51;;;;;;;28.92;18.45;;;;;;;17.04;100.00;100846.75;5015813;28;20032;-71
2023/10/03 00:25:18;;;;;;;29.80;18.00;;;;;;;17.04;100.00;100845.03;5011253;28;20064;-71
2023/10/03 00:27:52;;;;;;;30.48;18.70;;;;;;;17.04;100.00;100850.25;5016169;28;20094;-71
2023/10/03 00:30:23;;;;;;;29.75;18.33;;;;;;;17.02;100.00;100851.97;5011986;28;20125;-71
2023/10/03 00:32:51;;;;;;;30.95;18.30;;;;;;;17.02;100.00;100841.50;5008817;28;20017;-71
2023/10/03 00:35:16;;;;;;;32.33;19.73;;;;;;;17.01;100.00;100837.16;5010595;28;20105;-71
2023/10/03 00:37:46;;;;;;;34.10;20.30;;;;;;;17.00;100.00;100837.16;5013933;28;20588;-71
2023/10/03 00:42:50;;;;;;;30.35;18.38;;;;;;;16.97;100.00;100822.28;5011409;28;20049;-71
2023/10/03 00:45:21;;;;;;;31.48;19.08;;;;;;;16.94;100.00;100832.75;5007096;28;20025;-71
2023/10/03 00:47:48;;;;;;;31.45;18.58;;;;;;;16.92;100.00;100810.94;5026288;28;20031;-71
2023/10/03 00:50:20;;;;;;;35.00;19.48;;;;;;;16.90;100.00;100808.31;5013990;28;20103;-71
2023/10/03 00:52:56;;;;;;;36.42;19.20;;;;;;;16.87;100.00;100795.22;5002506;28;20017;-71
2023/10/03 00:55:33;;;;;;;32.30;18.73;;;;;;;16.87;100.00;100794.34;5025698;28;20041;-71
2023/10/03 01:00:31;;;;;;;29.30;18.63;;;;;;;16.84;100.00;100774.25;5016384;28;20034;-71
2023/10/03 01:02:57;;;;;;;34.85;20.38;;;;;;;16.83;100.00;100772.50;5021315;28;20500;-71
2023/10/03 01:05:23;;;;;;;30.98;18.73;;;;;;;16.82;100.00;100756.81;5016094;28;20557;-71
2023/10/03 01:07:49;;;;;;;31.10;19.05;;;;;;;16.81;100.00;100753.31;5020738;28;20025;-71
2023/10/03 01:10:18;;;;;;;30.50;18.73;;;;;;;16.80;100.00;100743.72;5016667;28;20101;-71
2023/10/03 01:12:46;;;;;;;30.23;18.65;;;;;;;16.80;100.00;100736.72;5007228;28;20484;-71
2023/10/03 01:15:15;;;;;;;28.60;19.00;;;;;;;16.79;100.00;100740.22;5015433;28;20359;-71
2023/10/03 01:17:43;;;;;;;33.53;19.40;;;;;;;16.80;100.00;100731.50;5022045;28;20037;-71
2023/10/03 01:20:16;;;;;;;31.25;19.45;;;;;;;16.80;100.00;100731.50;5016859;28;20502;-71
2023/10/03 01:22:44;;;;;;;31.33;18.33;;;;;;;16.81;100.00;100727.16;5020221;28;20573;-71
2023/10/03 01:25:12;;;;;;;32.53;18.92;;;;;;;16.82;100.00;100722.78;5017526;28;20033;-69
2023/10/03 01:27:37;;;;;;;33.25;19.15;;;;;;;16.83;100.00;100725.41;5020002;28;20440;-71
2023/10/03 01:30:06;;;;;;;32.05;18.55;;;;;;;16.84;100.00;100721.06;5017996;28;20026;-71
2023/10/03 01:32:36;;;;;;;29.00;18.25;;;;;;;16.84;100.00;100724.53;5015027;28;20034;-71
2023/10/03 01:35:07;;;;;;;29.95;18.20;;;;;;;16.84;100.00;100721.06;5018781;28;20397;-71
2023/10/03 01:37:33;;;;;;;32.10;17.88;;;;;;;16.84;100.00;100711.44;5018218;28;20428;-70
2023/10/03 01:39:58;;;;;;;32.47;18.45;;;;;;;16.85;100.00;100713.22;5018681;28;20022;-71
2023/10/03 01:42:24;;;;;;;32.28;18.85;;;;;;;16.87;100.00;100714.09;5018361;28;20374;-71
2023/10/03 01:44:50;;;;;;;30.85;19.05;;;;;;;16.92;100.00;100699.28;5015621;28;20076;-69
2023/10/03 01:47:15;;;;;;;31.20;17.42;;;;;;;16.96;100.00;100697.56;5024809;28;20032;-71
2023/10/03 01:49:42;;;;;;;29.05;16.85;;;;;;;17.03;100.00;100695.81;5006415;28;20037;-71
2023/10/03 01:52:07;;;;;;;27.48;16.42;;;;;;;17.12;100.00;100702.84;5006895;28;20018;-71
2023/10/03 01:54:34;;;;;;;26.33;16.00;;;;;;;17.19;100.00;100707.25;5006321;28;20030;-71
2023/10/03 01:57:00;;;;;;;31.00;17.33;;;;;;;17.28;100.00;100696.78;5007524;28;20057;-70
2023/10/03 01:59:25;;;;;;;29.90;16.95;;;;;;;17.40;100.00;100690.69;5008125;28;20484;-71
2023/10/03 02:01:51;;;;;;;26.88;16.00;;;;;;;17.51;100.00;100701.19;5007401;28;20021;-71
2023/10/03 02:04:16;;;;;;;23.92;14.77;;;;;;;17.59;100.00;100690.69;5007676;28;20022;-69
2023/10/03 02:06:42;;;;;;;24.42;15.80;;;;;;;17.63;100.00;100696.81;5007339;28;20022;-71
2023/10/03 02:09:08;;;;;;;29.80;16.55;;;;;;;17.76;100.00;100703.81;5010375;28;20065;-71
2023/10/03 02:11:34;;;;;;;28.02;16.25;;;;;;;17.82;100.00;100687.22;5011479;28;20026;-71
2023/10/03 02:14:03;;;;;;;27.38;15.48;;;;;;;17.94;100.00;100688.94;5011170;28;20133;-71
2023/10/03 02:16:28;;;;;;;26.52;15.88;;;;;;;17.98;100.00;100693.31;5011317;28;20474;-70
2023/10/03 02:18:55;;;;;;;28.67;15.55;;;;;;;18.03;100.00;100687.16;5010952;28;20109;-72
2023/10/03 02:21:21;;;;;;;27.77;16.63;;;;;;;18.00;100.00;100686.31;5011250;28;20030;-70
2023/10/03 02:23:47;;;;;;;27.00;16.00;;;;;;;17.99;100.00;100674.06;5010632;28;20033;-71
2023/10/03 02:26:13;;;;;;;26.35;15.70;;;;;;;18.03;100.00;100664.47;5011757;28;20025;-71
2023/10/03 02:28:40;;;;;;;26.77;15.48;;;;;;;18.08;100.00;100651.34;5011504;28;20466;-71
2023/10/03 02:31:09;;;;;;;26.20;15.98;;;;;;;18.10;100.00;100652.19;5011295;28;20552;-71
2023/10/03 02:33:40;;;;;;;28.17;15.82;;;;;;;18.13;100.00;100670.56;5010728;28;20022;-71
2023/10/03 02:36:07;;;;;;;24.95;15.00;;;;;;;18.18;100.00;100689.81;5011542;28;20092;-71
2023/10/03 02:38:36;;;;;;;23.92;14.65;;;;;;;18.19;100.00;100670.56;5011672;28;20087;-71
2023/10/03 02:41:02;;;;;;;23.35;15.82;;;;;;;18.24;100.00;100676.69;5010952;28;20042;-71
2023/10/03 02:43:30;;;;;;;23.33;14.77;;;;;;;18.32;100.00;100678.41;5010475;28;20096;-71
2023/10/03 02:45:55;;;;;;;25.67;14.38;;;;;;;18.32;100.00;100670.53;5027635;28;20075;-71
2023/10/03 02:48:21;;;;;;;26.45;15.02;;;;;;;18.34;100.00;100679.28;5029699;28;20440;-71
2023/10/03 02:50:49;;;;;;;27.73;15.52;;;;;;;18.37;100.00;100681.88;5029322;28;20026;-71
2023/10/03 02:53:17;;;;;;;24.77;14.43;;;;;;;18.39;100.00;100682.75;5029666;28;20024;-71
2023/10/03 02:55:43;;;;;;;23.27;13.50;;;;;;;18.50;100.00;100679.22;5029156;28;20049;-71
2023/10/03 02:58:09;;;;;;;24.20;14.88;;;;;;;18.51;100.00;100683.59;5029245;28;20072;-71
2023/10/03 03:00:38;;;;;;;24.08;13.40;;;;;;;18.49;100.00;100686.25;5029540;28;20026;-70
2023/10/03 03:03:09;;;;;;;25.45;14.65;;;;;;;18.47;100.00;100694.09;5029370;28;20065;-71
2023/10/03 03:05:37;;;;;;;26.55;14.35;;;;;;;18.47;100.00;100690.63;5029307;28;20021;-71
2023/10/03 03:08:15;;;;;;;21.10;13.23;;;;;;;18.46;100.00;100684.50;5015902;28;20067;-71
2023/10/03 03:10:40;;;;;;;20.25;12.20;;;;;;;18.48;100.00;100677.50;5010178;28;20033;-70
2023/10/03 03:13:07;;;;;;;21.17;11.40;;;;;;;18.53;100.00;100689.72;5024711;28;20408;-71
2023/10/03 03:15:36;;;;;;;20.58;12.63;;;;;;;18.54;100.00;100687.09;5029172;28;20025;-71
2023/10/03 03:18:02;;;;;;;19.83;11.10;;;;;;;18.61;100.00;100687.94;5028668;28;20033;-69
2023/10/03 03:20:36;;;;;;;19.08;11.02;;;;;;;18.62;100.00;100696.69;5020365;28;20506;-70
2023/10/03 03:23:02;;;;;;;20.55;12.10;;;;;;;18.63;100.00;100690.56;5009624;28;20105;-71
2023/10/03 03:25:37;;;;;;;20.50;12.05;;;;;;;18.63;100.00;100685.31;5009551;28;20113;-71
2023/10/03 03:28:13;;;;;;;21.80;12.10;;;;;;;18.67;100.00;100697.53;5009361;28;20026;-71
2023/10/03 03:30:45;;;;;;;20.00;11.20;;;;;;;18.68;100.00;100689.66;5010301;28;20382;-71
2023/10/03 03:33:11;;;;;;;20.58;12.57;;;;;;;18.67;100.00;100681.78;4997394;28;20018;-71
2023/10/03 03:35:38;;;;;;;21.67;12.32;;;;;;;18.70;100.00;100687.03;5010101;28;20496;-71
2023/10/03 03:38:05;;;;;;;22.27;12.52;;;;;;;18.66;100.00;100673.03;5009206;28;20022;-71
2023/10/03 03:40:33;;;;;;;20.30;11.95;;;;;;;18.67;100.00;100682.66;5009654;28;20064;-71
2023/10/03 03:43:06;;;;;;;20.35;12.02;;;;;;;18.63;100.00;100675.69;5008979;28;20122;-71
2023/10/03 03:45:32;;;;;;;21.73;12.52;;;;;;;18.65;100.00;100676.56;5023422;28;20037;-71
2023/10/03 03:47:57;;;;;;;17.67;11.70;;;;;;;18.64;100.00;100687.91;5029070;28;20021;-71
2023/10/03 03:50:23;;;;;;;18.85;10.68;;;;;;;18.63;100.00;100685.31;5012841;28;20120;-71
2023/10/03 03:52:49;;;;;;;17.02;10.48;;;;;;;18.62;100.00;100689.66;5017229;28;20116;-71
2023/10/03 03:55:16;;;;;;;19.23;10.05;;;;;;;18.62;100.00;100692.28;5028157;28;20037;-71
2023/10/03 03:57:42;;;;;;;15.73;9.93;;;;;;;18.64;100.00;100692.28;5027983;28;20118;-71
2023/10/03 04:00:20;;;;;;;16.17;9.90;;;;;;;18.65;100.00;100694.94;5026970;28;20059;-71
2023/10/03 04:02:47;;;;;;;14.05;9.32;;;;;;;18.63;100.00;100699.31;5027880;28;20110;-71
2023/10/03 04:05:13;;;;;;;16.70;9.48;;;;;;;18.63;100.00;100704.56;5027278;28;20014;-71
2023/10/03 04:07:39;;;;;;;14.77;8.95;;;;;;;18.65;100.00;100699.28;5028599;28;20037;-71
2023/10/03 04:10:12;;;;;;;13.10;8.77;;;;;;;18.64;100.00;100708.91;5026713;28;20021;-71
2023/10/03 04:12:41;;;;;;;17.05;9.68;;;;;;;18.64;100.00;100698.41;5028130;28;20029;-72
2023/10/03 04:15:15;;;;;;;11.60;8.18;;;;;;;18.64;100.00;100706.28;5027057;28;20064;-69
2023/10/03 04:17:44;;;;;;;13.80;8.75;;;;;;;18.65;100.00;100717.66;5028235;28;20052;-72
2023/10/03 04:20:19;;;;;;;14.88;8.20;;;;;;;18.64;100.00;100716.78;5027998;28;20104;-71
2023/10/03 04:22:46;;;;;;;13.40;8.27;;;;;;;18.64;100.00;100714.16;5026245;28;20136;-71
2023/10/03 04:25:19;;;;;;;13.88;8.02;;;;;;;18.65;100.00;100720.28;5015773;28;20100;-72
2023/10/03 04:27:45;;;;;;;11.98;7.20;;;;;;;18.63;100.00;100725.53;5027727;28;20340;-71
2023/10/03 04:30:13;;;;;;;13.23;8.30;;;;;;;18.61;100.00;100729.91;5026868;28;20033;-70
2023/10/03 04:32:47;;;;;;;13.65;7.45;;;;;;;18.59;100.00;100747.41;5025983;28;20025;-71
2023/10/03 04:35:13;;;;;;;14.52;7.20;;;;;;;18.57;100.00;100734.31;5027692;28;20441;-71
2023/10/03 04:37:42;;;;;;;10.73;6.53;;;;;;;18.58;100.00;100745.69;5026718;28;20104;-71
2023/10/03 04:40:10;;;;;;;9.23;6.57;;;;;;;18.59;100.00;100739.53;5027066;28;20177;-69
2023/10/03 04:42:35;;;;;;;14.70;7.05;;;;;;;18.57;100.00;100741.28;5022364;28;20092;-71
2023/10/03 04:45:05;;;;;;;10.50;6.28;;;;;;;18.54;100.00;100739.56;5008360;28;20474;-71
2023/10/03 04:47:30;;;;;;;10.32;6.53;;;;;;;18.54;100.00;100746.56;5007076;28;20033;-70
2023/10/03 04:50:00;;;;;;;10.48;6.45;;;;;;;18.52;100.00;100753.56;5008564;28;20057;-71
2023/10/03 04:52:25;;;;;;;12.55;5.40;;;;;;;18.50;100.00;100763.16;5009160;28;20097;-71
2023/10/03 04:54:50;;;;;;;9.43;5.50;;;;;;;18.47;100.00;100766.69;5008090;28;20264;-71
2023/10/03 04:57:15;;;;;;;12.38;6.18;;;;;;;18.44;100.00;100770.19;5008455;28;20040;-70
2023/10/03 04:59:41;;;;;;;9.68;5.05;;;;;;;18.43;100.00;100780.69;5008189;28;20041;-72
2023/10/03 05:02:06;;;;;;;9.98;5.70;;;;;;;18.41;100.00;100771.94;5008620;28;20533;-71
2023/10/03 05:04:31;;;;;;;9.10;5.68;;;;;;;18.39;100.00;100773.69;5007864;28;20037;-70
2023/10/03 05:06:57;;;;;;;10.75;5.82;;;;;;;18.36;100.00;100769.34;5007683;28;20466;-71
2023/10/03 05:09:28;;;;;;;9.07;5.13;;;;;;;18.34;100.00;100758.84;5008457;28;20124;-71
2023/10/03 05:11:53;;;;;;;11.75;5.82;;;;;;;18.30;100.00;100782.44;5004386;28;20433;-71
2023/10/03 05:14:18;;;;;;;7.60;5.13;;;;;;;18.27;100.00;100793.81;5002615;28;20022;-71
2023/10/03 05:16:44;;;;;;;11.85;5.32;;;;;;;18.25;100.00;100806.06;5005500;28;20034;-71
2023/10/03 05:19:10;;;;;;;10.05;5.47;;;;;;;18.21;100.00;100820.91;5005146;28;20048;-71
2023/10/03 05:21:37;;;;;;;9.90;6.05;;;;;;;18.17;100.00;100828.78;5005113;28;20030;-70
2023/10/03 05:24:03;;;;;;;7.97;5.13;;;;;;;18.16;100.00;100833.16;5004381;28;20037;-71
2023/10/03 05:26:29;;;;;;;10.20;5.43;;;;;;;18.13;100.00;100817.41;4995843;28;20034;-70
2023/10/03 05:28:55;;;;;;;9.43;5.78;;;;;;;18.08;100.00;100811.28;4994934;28;20391;-70
2023/10/03 05:31:22;;;;;;;9.98;5.90;;;;;;;18.04;100.00;100785.94;5005582;28;20029;-70
2023/10/03 05:33:48;;;;;;;12.05;5.85;;;;;;;18.02;100.00;100779.81;5005717;28;20133;-70
2023/10/03 05:36:16;;;;;;;10.18;5.75;;;;;;;18.03;100.00;100784.16;5004235;28;20041;-70
2023/10/03 05:38:42;;;;;;;9.38;5.78;;;;;;;17.99;100.00;100792.03;5016871;28;20026;-70
2023/10/03 05:41:20;;;;;;;12.57;5.75;;;;;;;17.99;100.00;100789.41;5018619;28;20521;-70
2023/10/03 05:43:45;;;;;;;9.00;5.90;;;;;;;17.97;100.00;100809.50;5011154;28;20367;-70
2023/10/03 05:46:11;;;;;;;9.30;5.70;;;;;;;17.96;100.00;100813.00;5016532;28;20040;-70
2023/10/03 05:48:36;;;;;;;11.27;6.07;;;;;;;17.95;100.00;100795.53;5027178;28;20798;-71
2023/10/03 05:51:01;;;;;;;8.88;5.43;;;;;;;17.95;100.00;100799.91;5027749;28;20041;-70
2023/10/03 05:53:27;;;;;;;10.38;5.32;;;;;;;17.91;100.00;100800.78;5028611;28;20033;-70
2023/10/03 05:55:52;;;;;;;8.88;5.57;;;;;;;17.87;100.00;100803.41;5026245;28;20051;-70
2023/10/03 05:58:17;;;;;;;9.02;5.65;;;;;;;17.87;100.00;100805.13;5027267;28;20091;-70
2023/10/03 06:00:42;;;;;;;9.30;5.70;;;;;;;17.87;100.00;100797.28;5027052;28;20045;-70
2023/10/03 06:03:09;;;;;;;6.63;5.20;;;;;;;17.84;100.00;100799.91;5017668;28;20072;-71
2023/10/03 06:05:34;;;;;;;10.32;5.72;;;;;;;17.80;100.00;100808.63;5024108;28;20033;-71
2023/10/03 06:08:00;;;;;;;9.65;5.43;;;;;;;17.77;100.00;100801.66;5028426;28;20475;-70
2023/10/03 06:10:29;;;;;;;8.95;5.50;;;;;;;17.80;100.00;100812.13;5026862;28;20025;-70
2023/10/03 06:12:54;;;;;;;9.40;5.50;;;;;;;17.81;100.00;100815.63;5028844;28;20465;-70
2023/10/03 06:15:19;;;;;;;8.13;5.35;;;;;;;17.81;100.00;100815.63;5026056;28;20029;-69
2023/10/03 06:17:45;;;;;;;8.85;5.68;;;;;;;17.75;100.00;100804.22;5025430;28;20033;-69
2023/10/03 06:20:14;;;;;;;9.40;4.97;;;;;;;17.75;100.00;100803.38;5021648;28;20097;-69
2023/10/03 06:22:40;;;;;;;7.80;5.80;;;;;;;17.76;100.00;100815.59;5025013;28;20084;-69
2023/10/03 06:25:07;;;;;;;11.25;5.88;;;;;;;17.73;100.00;100826.09;5012686;28;20017;-69
2023/10/03 06:27:32;;;;;;;8.63;4.93;;;;;;;17.74;100.00;100833.94;5023771;28;20060;-69
2023/10/03 06:29:58;;;;;;;10.63;5.82;;;;;;;17.72;100.00;100833.06;5022293;28;20049;-69
2023/10/03 06:32:23;;;;;;;8.73;5.53;;;;;;;17.73;100.00;100840.06;5022578;28;20053;-69
2023/10/03 06:34:48;;;;;;;9.75;5.65;;;;;;;17.73;100.00;100840.06;5019707;28;20021;-68
2023/10/03 06:37:14;;;;;;;8.05;5.75;;;;;;;17.72;100.00;100838.31;5016684;28;20135;-69
2023/10/03 06:39:41;;;;;;;8.88;5.63;;;;;;;17.71;100.00;100846.16;5021676;28;20104;-69
2023/10/03 06:42:07;;;;;;;10.65;6.72;;;;;;;17.69;100.00;100843.53;5015602;28;20526;-69
2023/10/03 06:44:33;;;;;;;7.93;5.70;;;;;;;17.69;100.00;100838.31;5009470;28;20597;-69
2023/10/03 06:46:58;;;;;;;10.60;5.95;;;;;;;17.70;100.00;100847.91;5008205;28;20317;-69
2023/10/03 06:49:23;;;;;;;10.32;6.30;;;;;;;17.68;100.00;100856.66;5008874;28;20413;-69
2023/10/03 06:51:56;;;;;;;9.02;5.90;;;;;;;17.67;100.00;100861.00;5009136;28;20022;-69
2023/10/03 06:54:23;;;;;;;7.65;5.57;;;;;;;17.67;100.00;100866.25;5001758;28;20034;-69
2023/10/03 06:56:49;;;;;;;10.18;6.25;;;;;;;17.66;100.00;100871.47;5023414;28;20537;-69
2023/10/03 06:59:15;;;;;;;9.35;6.68;;;;;;;17.65;100.00;100883.69;5029290;28;20132;-69
2023/10/03 07:01:41;;;;;;;8.82;6.10;;;;;;;17.66;100.00;100887.19;5028324;28;20104;-69
2023/10/03 07:04:10;;;;;;;9.70;6.28;;;;;;;17.65;100.00;100881.06;5029300;28;20528;-69
2023/10/03 07:06:35;;;;;;;8.77;6.22;;;;;;;17.66;100.00;100882.84;5028392;28;20394;-69
2023/10/03 07:09:10;;;;;;;8.52;5.70;;;;;;;17.65;100.00;100888.94;5028343;28;20036;-69
2023/10/03 07:11:36;;;;;;;13.35;6.80;;;;;;;17.64;100.00;100893.31;5026700;28;20037;-69
2023/10/03 07:14:01;;;;;;;7.20;5.63;;;;;;;17.62;100.00;100887.19;5009543;28;20381;-69
2023/10/03 07:16:30;;;;;;;9.70;5.53;;;;;;;17.62;100.00;100895.06;5023469;28;20085;-69
2023/10/03 07:18:55;;;;;;;10.35;6.53;;;;;;;17.62;100.00;100888.94;5028700;28;20116;-69
2023/10/03 07:21:22;;;;;;;8.50;5.78;;;;;;;17.62;100.00;100889.81;5027628;28;20101;-69
2023/10/03 07:23:47;;;;;;;12.85;6.03;;;;;;;17.61;100.00;100890.66;5028596;28;20029;-69
2023/10/03 07:26:13;;;;;;;10.48;6.38;;;;;;;17.60;100.00;100893.28;5028769;28;20033;-69
2023/10/03 07:28:39;;;;;;;15.18;7.25;;;;;;;17.59;100.00;100905.50;5028941;28;20730;-69
2023/10/03 07:31:09;;;;;;;10.63;7.30;;;;;;;17.57;100.00;100907.28;5027075;28;20025;-69
2023/10/03 07:33:34;;;;;;;12.38;7.95;;;;;;;17.49;100.00;100890.63;5027744;28;20036;-69
2023/10/03 07:36:04;;;;;;;14.07;8.38;;;;;;;17.38;100.00;100894.09;5027753;28;20025;-69
2023/10/03 07:38:30;;;;;;;11.30;8.43;;;;;;;17.34;100.00;100899.31;5029036;28;20025;-69
2023/10/03 07:40:55;;;;;;;10.13;8.02;;;;;;;17.33;100.00;100913.25;5012116;28;20057;-69
2023/10/03 07:43:20;;;;;;;8.65;7.75;;;;;;;17.33;100.00;100913.25;5008380;28;20077;-69
2023/10/03 07:45:45;;;;;;;10.63;7.18;;;;;;;17.33;100.00;100914.13;5008714;28;20547;-69
2023/10/03 07:48:11;;;;;;;10.90;7.75;;;;;;;17.34;100.00;100925.50;5008246;28;20059;-69
2023/10/03 07:50:37;;;;;;;12.35;9.23;;;;;;;17.35;100.00;100937.72;5009528;28;20565;-69
2023/10/03 07:53:11;;;;;;;11.57;8.05;;;;;;;17.29;100.00;100943.78;5009255;28;20018;-69
2023/10/03 07:55:36;;;;;;;10.93;8.27;;;;;;;17.24;100.00;100946.38;5009441;28;20394;-69
2023/10/03 07:58:02;;;;;;;12.80;7.38;;;;;;;17.24;100.00;100951.63;5008998;28;20025;-69
2023/10/03 08:00:27;;;;;;;12.15;8.25;;;;;;;17.19;100.00;100940.25;5010228;28;20421;-69
2023/10/03 08:02:52;;;;;;;10.48;8.35;;;;;;;17.13;100.00;100929.72;5009273;28;20022;-69
2023/10/03 08:05:18;;;;;;;11.52;7.80;;;;;;;17.12;100.00;100943.69;5010186;28;20033;-69
2023/10/03 08:07:50;;;;;;;9.63;7.22;;;;;;;17.12;100.00;100954.16;5008887;28;20125;-69
2023/10/03 08:10:17;;;;;;;13.55;7.53;;;;;;;17.12;100.00;100956.78;5008834;28;20014;-69
2023/10/03 08:12:43;;;;;;;9.18;6.85;;;;;;;17.07;100.00;100963.69;5009506;28;20405;-69
2023/10/03 08:15:17;;;;;;;9.95;7.63;;;;;;;17.05;100.00;100971.53;5009683;28;20028;-69
2023/10/03 08:17:53;;;;;;;12.45;7.85;;;;;;;17.07;100.00;100975.03;5009393;28;20490;-69
2023/10/03 08:20:18;;;;;;;11.07;7.50;;;;;;;17.09;100.00;100972.44;5010745;28;20044;-69
2023/10/03 08:22:53;;;;;;;12.38;7.18;;;;;;;17.07;100.00;101005.59;5013375;28;20026;-69
2023/10/03 08:25:21;;;;;;;10.20;6.00;;;;;;;17.06;100.00;101009.94;5010542;28;20112;-69
2023/10/03 08:27:47;;;;;;;9.75;6.00;;;;;;;17.07;100.00;101018.66;5013119;28;20021;-69
2023/10/03 08:30:25;;;;;;;7.63;5.72;;;;;;;17.10;100.00;101022.22;5010726;28;20025;-69
2023/10/03 08:32:53;;;;;;;9.88;5.97;;;;;;;17.12;100.00;101014.38;5013530;28;20030;-69
2023/10/03 08:35:18;;;;;;;7.32;5.72;;;;;;;17.15;100.00;101028.38;5010560;28;20030;-69
2023/10/03 08:37:44;;;;;;;7.20;5.50;;;;;;;17.19;100.00;101025.75;5012040;28;20025;-69
2023/10/03 08:40:19;;;;;;;9.52;4.25;;;;;;;17.20;100.00;101023.16;5010692;28;20427;-69
2023/10/03 08:42:52;;;;;;;7.40;4.15;;;;;;;17.22;100.00;101031.91;5007669;28;20117;-69
2023/10/03 08:45:25;;;;;;;7.68;4.13;;;;;;;17.25;100.00;101034.53;5005493;28;20056;-69
2023/10/03 08:47:53;;;;;;;7.25;4.03;;;;;;;17.30;100.00;101044.19;5007507;28;20025;-69
2023/10/03 08:50:33;;;;;;;5.40;3.40;;;;;;;17.37;100.00;101040.75;5005137;28;20038;-69
2023/10/03 08:53:12;;;;;;;6.83;3.00;;;;;;;17.42;100.00;101054.75;4998524;28;20026;-68
2023/10/03 08:55:39;;;;;;;3.80;2.45;;;;;;;17.44;100.00;101060.88;5004990;28;20379;-69
2023/10/03 08:58:04;;;;;;;6.47;2.83;;;;;;;17.44;100.00;101066.09;5010990;28;20033;-69
2023/10/03 09:00:40;;;;;;;4.20;2.00;;;;;;;17.44;100.00;101071.34;5005998;28;20381;-69
2023/10/03 09:03:12;;;;;;;4.22;2.05;;;;;;;17.47;100.00;101075.72;5012036;28;20025;-69
2023/10/03 09:05:41;;;;;;;3.08;1.88;;;;;;;17.44;100.00;101079.19;5013756;28;20057;-69
2023/10/03 09:08:11;;;;;;;5.07;2.38;;;;;;;17.42;100.00;101099.25;5007747;28;20025;-69
2023/10/03 09:10:51;;;;;;;2.63;0.90;;;;;;;17.36;100.00;101099.22;5006146;28;20026;-69
2023/10/03 09:13:23;;;;;;;2.58;0.70;;;;;;;17.24;100.00;101107.84;5007014;28;20496;-69
2023/10/03 09:16:07;;;;;;;2.10;0.68;;;;;;;17.10;100.00;101110.31;5012367;28;20022;-69
2023/10/03 09:18:42;;;;;;;2.17;0.63;;;;;;;17.08;100.00;101119.88;5014135;28;20057;-69
2023/10/03 09:21:15;;;;;;;3.63;0.68;;;;;;;17.09;100.00;101129.50;5019113;28;20024;-69
2023/10/03 09:24:12;;;;;;;2.70;0.52;;;;;;;17.05;100.00;101139.94;5015768;28;20092;-69
2023/10/03 09:26:46;;;;;;;1.05;0.38;;;;;;;17.11;100.00;101154.84;5015622;28;20034;-69
2023/10/03 09:29:32;;;;;;;1.25;0.50;;;;;;;17.11;100.00;101160.09;5019844;28;20023;-69
2023/10/03 09:31:58;;;;;;;1.42;0.50;;;;;;;17.08;100.00;101164.38;5016369;28;20386;-69
2023/10/03 09:34:30;;;;;;;2.20;0.82;;;;;;;17.05;100.00;101160.88;5018989;28;20022;-69
2023/10/03 09:37:02;;;;;;;2.85;0.82;;;;;;;17.07;100.00;101175.75;5016909;28;20128;-69
2023/10/03 09:39:31;;;;;;;2.65;0.90;;;;;;;17.06;100.00;101180.09;5015686;28;20407;-69
2023/10/03 09:41:58;;;;;;;2.53;1.02;;;;;;;17.05;100.00;101170.50;5017509;28;20443;-69
2023/10/03 09:44:29;;;;;;;2.67;0.93;;;;;;;17.05;100.00;101181.81;5016675;28;20232;-69
2023/10/03 09:47:06;;;;;;;3.08;1.27;;;;;;;16.97;100.00;101174.75;5030365;28;20148;-69
2023/10/03 09:49:38;;;;;;;4.25;1.05;;;;;;;16.99;100.00;101168.69;5028961;28;20128;-69
2023/10/03 09:52:22;;;;;;;2.95;1.05;;;;;;;16.99;100.00;101176.53;5015716;28;20126;-69
2023/10/03 09:54:53;;;;;;;4.03;1.20;;;;;;;16.95;100.00;101193.06;5010813;28;20435;-69
2023/10/03 09:57:21;;;;;;;4.35;0.98;;;;;;;16.91;100.00;101188.63;5010545;28;20025;-69
2023/10/03 09:59:48;;;;;;;5.03;1.25;;;;;;;16.87;100.00;101197.34;5010998;28;20041;-69
2023/10/03 10:02:30;;;;;;;3.90;1.05;;;;;;;16.82;100.00;101205.13;5009839;28;20029;-69
2023/10/03 10:04:59;;;;;;;4.97;1.20;;;;;;;16.79;100.00;101198.13;5010968;28;20022;-69
2023/10/03 10:07:34;;;;;;;3.00;1.30;;;;;;;16.82;100.00;101205.13;5010609;28;20044;-69
2023/10/03 10:10:14;;;;;;;3.15;0.93;;;;;;;16.88;100.00;101226.13;5011418;28;20026;-69
2023/10/03 10:13:20;;;;;;;2.60;1.52;;;;;;;16.93;100.00;101228.78;5010555;28;20109;-69
2023/10/03 10:16:01;;;;;;;3.22;1.20;;;;;;;16.92;100.00;101216.59;5000828;28;20037;-69
2023/10/03 10:18:44;;;;;;;2.33;1.10;;;;;;;16.98;100.00;101237.56;5011395;28;20026;-69
2023/10/03 10:21:48;;;;;;;1.77;0.70;;;;;;;17.01;100.00;101249.84;5010892;28;20034;-69
2023/10/03 10:24:15;;;;;;;2.53;0.70;;;;;;;16.99;100.00;101260.28;5009810;28;20088;-69
2023/10/03 10:26:52;;;;;;;2.28;0.82;;;;;;;16.95;100.00;101258.50;5010501;28;20038;-69
2023/10/03 10:29:28;;;;;;;2.55;0.82;;;;;;;16.88;100.00;101261.91;5009758;28;20026;-69
2023/10/03 10:32:00;;;;;;;2.55;0.70;;;;;;;16.84;100.00;101265.34;5010635;28;20040;-69
2023/10/03 10:34:30;;;;;;;0.93;0.60;;;;;;;16.76;100.00;101268.75;5011444;28;20026;-69
2023/10/03 10:37:05;;;;;;;1.75;0.75;;;;;;;16.75;100.00;101274.81;5009347;28;20394;-69
2023/10/03 10:39:55;;;;;;;3.53;1.20;;;;;;;16.74;100.00;101272.19;5021633;28;20104;-69
2023/10/03 10:42:29;;;;;;;2.00;0.85;;;;;;;16.74;100.00;101274.81;5026190;28;20030;-69
2023/10/03 10:45:04;;;;;;;3.72;1.00;;;;;;;16.79;100.00;101278.34;5029269;28;20029;-69
2023/10/03 10:47:34;;;;;;;3.40;1.20;;;;;;;16.84;100.00;101296.75;5016345;28;20117;-69
2023/10/03 10:50:00;;;;;;;2.78;0.77;;;;;;;16.90;100.00;101296.81;5029152;28;20029;-69
2023/10/03 10:52:29;;;;;;;3.30;0.90;;;;;;;16.88;100.00;101306.38;5013694;28;20057;-69
2023/10/03 10:54:55;;;;;;;2.05;0.52;;;;;;;16.87;100.00;101312.50;5012707;28;20065;-69
2023/10/03 10:57:25;;;;;;;0.80;0.47;;;;;;;16.79;100.00;101309.75;5021008;28;20084;-69
2023/10/03 10:59:52;;;;;;;1.60;0.50;;;;;;;16.68;100.00;101304.38;5019571;28;20029;-69
2023/10/03 11:02:22;;;;;;;2.17;0.50;;;;;;;16.55;100.00;101312.06;5019701;28;20022;-69
2023/10/03 11:04:58;;;;;;;2.15;0.70;;;;;;;16.44;100.00;101329.34;5016890;28;20102;-69
2023/10/03 11:07:28;;;;;;;3.17;0.55;;;;;;;16.37;100.00;101323.09;5015055;28;20025;-69
2023/10/03 11:10:04;;;;;;;1.60;0.57;;;;;;;16.32;100.00;101327.38;5017838;28;20475;-69
2023/10/03 11:12:29;;;;;;;1.10;0.55;;;;;;;16.27;100.00;101332.56;5008013;28;20025;-69
2023/10/03 11:14:55;;;;;;;1.70;0.70;;;;;;;16.21;100.00;101340.28;5024460;28;20695;-69
2023/10/03 11:17:22;;;;;;;0.98;0.47;;;;;;;16.18;100.00;101342.84;5026754;28;20025;-69
2023/10/03 11:19:49;;;;;;;1.50;0.60;;;;;;;16.16;100.00;101340.22;5023444;28;20025;-69
2023/10/03 11:22:17;;;;;;;1.90;0.60;;;;;;;16.12;100.00;101337.53;5027215;28;20028;-69